createdAt,value
2017-09-08T00:01:55.879Z,10.00
2017-09-08T00:04:24.307Z,9.90
2017-09-08T00:06:53.062Z,10.00
2017-09-08T00:09:21.723Z,9.90
2017-09-08T00:11:50.386Z,9.80
2017-09-08T00:14:19.046Z,9.80
2017-09-08T00:16:47.698Z,9.80
2017-09-08T00:19:16.139Z,9.80
2017-09-08T00:21:44.812Z,9.70
2017-09-08T00:24:13.258Z,9.70
2017-09-08T00:26:41.669Z,9.70
2017-09-08T00:29:10.081Z,9.60
2017-09-08T00:31:38.497Z,9.60
2017-09-08T00:34:07.345Z,9.50
2017-09-08T00:36:35.765Z,9.50
2017-09-08T00:39:03.297Z,9.50
2017-09-08T00:41:31.733Z,9.40
2017-09-08T00:44:00.126Z,9.40
2017-09-08T00:46:28.546Z,9.40
2017-09-08T00:48:57.002Z,9.40
2017-09-08T00:51:25.402Z,9.40
2017-09-08T00:53:53.810Z,9.30
2017-09-08T00:56:22.226Z,9.40
2017-09-08T00:58:50.623Z,9.40
2017-09-08T01:01:19.049Z,9.30
2017-09-08T01:03:47.765Z,9.40
2017-09-08T01:06:16.923Z,9.40
2017-09-08T01:08:45.377Z,9.30
2017-09-08T01:11:13.785Z,9.30
2017-09-08T01:13:42.424Z,9.30
2017-09-08T01:16:11.093Z,9.30
2017-09-08T01:18:39.494Z,9.30
2017-09-08T01:21:07.902Z,9.30
2017-09-08T01:23:36.441Z,9.30
2017-09-08T01:26:04.905Z,9.30
2017-09-08T01:28:33.325Z,9.30
2017-09-08T01:31:01.758Z,9.20
2017-09-08T01:33:30.930Z,9.20
2017-09-08T01:35:59.626Z,9.20
2017-09-08T01:38:28.330Z,9.20
2017-09-08T01:40:56.969Z,9.30
2017-09-08T01:43:26.070Z,9.20
2017-09-08T01:45:54.494Z,9.20
2017-09-08T01:48:23.166Z,9.20
2017-09-08T01:50:52.670Z,9.30
2017-09-08T01:53:20.890Z,9.20
2017-09-08T01:55:49.284Z,9.20
2017-09-08T01:58:17.573Z,9.20
2017-09-08T02:00:45.969Z,9.10
2017-09-08T02:03:14.362Z,9.10
2017-09-08T02:05:42.801Z,9.10
2017-09-08T02:08:11.203Z,9.10
2017-09-08T02:10:40.149Z,9.00
2017-09-08T02:13:08.821Z,8.90
2017-09-08T02:15:37.757Z,8.90
2017-09-08T02:18:07.181Z,8.90
2017-09-08T02:20:36.074Z,8.90
2017-09-08T02:23:04.748Z,8.80
2017-09-08T02:25:33.466Z,8.70
2017-09-08T02:28:01.865Z,8.70
2017-09-08T02:30:30.269Z,8.70
2017-09-08T02:32:58.707Z,8.70
2017-09-08T02:35:27.390Z,8.70
2017-09-08T02:37:55.797Z,8.70
2017-09-08T02:40:25.034Z,8.50
2017-09-08T02:42:53.730Z,8.50
2017-09-08T02:45:22.833Z,8.50
2017-09-08T02:47:51.481Z,8.60
2017-09-08T02:50:21.171Z,8.60
2017-09-08T02:52:50.345Z,8.70
2017-09-08T02:55:19.052Z,8.60
2017-09-08T02:57:48.238Z,8.70
2017-09-08T03:00:17.169Z,8.70
2017-09-08T03:02:45.865Z,8.70
2017-09-08T03:05:14.530Z,8.70
2017-09-08T03:07:42.937Z,8.70
2017-09-08T03:10:11.668Z,8.80
2017-09-08T03:12:40.338Z,8.90
2017-09-08T03:15:09.022Z,8.90
2017-09-08T03:17:37.454Z,8.90
2017-09-08T03:20:06.158Z,8.80
2017-09-08T03:22:34.830Z,8.80
2017-09-08T03:25:03.571Z,8.80
2017-09-08T03:27:32.318Z,8.70
2017-09-08T03:30:01.214Z,8.60
2017-09-08T03:32:29.883Z,8.60
2017-09-08T03:34:58.595Z,8.50
2017-09-08T03:37:27.277Z,8.50
2017-09-08T03:39:56.746Z,8.70
2017-09-08T03:42:25.675Z,8.60
2017-09-08T03:44:54.354Z,8.70
2017-09-08T03:47:23.321Z,8.60
2017-09-08T03:49:52.070Z,8.60
2017-09-08T03:52:20.758Z,8.60
2017-09-08T03:54:49.090Z,8.70
2017-09-08T03:57:17.794Z,8.70
2017-09-08T03:59:46.458Z,8.60
2017-09-08T04:02:15.158Z,8.60
2017-09-08T04:04:43.695Z,8.60
2017-09-08T04:07:12.637Z,8.60
2017-09-08T04:09:41.057Z,8.60
2017-09-08T04:12:09.734Z,8.60
2017-09-08T04:14:38.637Z,8.60
2017-09-08T04:17:07.305Z,8.60
2017-09-08T04:19:35.994Z,8.60
2017-09-08T04:22:05.470Z,8.60
2017-09-08T04:24:34.184Z,8.70
2017-09-08T04:27:02.861Z,8.70
2017-09-08T04:29:32.350Z,8.80
2017-09-08T04:32:00.788Z,8.70
2017-09-08T04:34:29.693Z,8.90
2017-09-08T04:36:58.133Z,8.90
2017-09-08T04:39:27.311Z,9.10
2017-09-08T04:41:55.766Z,9.30
2017-09-08T04:44:24.178Z,9.50
2017-09-08T04:46:52.305Z,9.70
2017-09-08T04:49:20.714Z,9.70
2017-09-08T04:51:49.124Z,9.80
2017-09-08T04:54:17.826Z,9.80
2017-09-08T04:56:46.234Z,9.70
2017-09-08T04:59:14.638Z,9.60
2017-09-08T05:01:43.293Z,9.70
2017-09-08T05:04:11.702Z,9.70
2017-09-08T05:06:40.107Z,9.60
2017-09-08T05:09:08.509Z,9.60
2017-09-08T05:11:36.990Z,9.50
2017-09-08T05:14:05.347Z,9.60
2017-09-08T05:16:34.174Z,9.50
2017-09-08T05:19:02.884Z,9.60
2017-09-08T05:21:31.650Z,9.70
2017-09-08T05:24:00.569Z,9.80
2017-09-08T05:26:54.354Z,9.90
2017-09-08T05:29:22.888Z,10.00
2017-09-08T05:31:51.612Z,10.20
2017-09-08T05:34:20.145Z,10.40
2017-09-08T05:36:48.625Z,10.70
2017-09-08T05:39:17.141Z,11.00
2017-09-08T05:41:46.482Z,11.30
2017-09-08T05:44:14.997Z,11.20
2017-09-08T05:46:44.254Z,11.30
2017-09-08T05:49:13.007Z,11.40
2017-09-08T05:51:41.776Z,11.60
2017-09-08T05:54:12.088Z,11.70
2017-09-08T05:56:40.809Z,11.60
2017-09-08T05:59:09.362Z,11.60
2017-09-08T06:01:38.130Z,11.70
2017-09-08T06:04:10.199Z,11.80
2017-09-08T06:06:39.687Z,12.10
2017-09-08T06:09:08.160Z,12.10
2017-09-08T06:11:36.878Z,12.50
2017-09-08T06:14:05.610Z,12.80
2017-09-08T06:16:34.052Z,13.20
2017-09-08T06:19:02.773Z,13.70
2017-09-08T06:21:31.290Z,14.20
2017-09-08T06:23:59.807Z,14.60
2017-09-08T06:26:28.330Z,15.20
2017-09-08T06:28:56.808Z,15.90
2017-09-08T06:31:26.064Z,16.30
2017-09-08T06:33:54.565Z,16.30
2017-09-08T06:36:23.031Z,16.10
2017-09-08T06:38:51.759Z,16.20
2017-09-08T06:41:21.098Z,16.20
2017-09-08T06:43:49.817Z,16.30
2017-09-08T06:46:19.598Z,16.30
2017-09-08T06:48:48.332Z,16.20
2017-09-08T06:51:16.864Z,16.20
2017-09-08T06:53:45.409Z,16.30
2017-09-08T06:56:14.791Z,16.60
2017-09-08T06:58:43.294Z,17.20
2017-09-08T07:01:11.847Z,17.30
2017-09-08T07:03:40.366Z,17.50
2017-09-08T07:06:08.850Z,18.10
2017-09-08T07:08:37.408Z,18.40
2017-09-08T07:11:05.891Z,19.30
2017-09-08T07:13:34.419Z,19.60
2017-09-08T07:16:02.919Z,20.10
2017-09-08T07:18:31.444Z,20.60
2017-09-08T07:20:59.956Z,21.70
2017-09-08T07:23:28.475Z,21.80
2017-09-08T07:25:57.001Z,22.20
2017-09-08T07:28:25.517Z,22.40
2017-09-08T07:30:54.233Z,23.20
2017-09-08T07:33:23.501Z,23.80
2017-09-08T07:35:51.975Z,23.70
2017-09-08T07:38:20.489Z,24.30
2017-09-08T07:40:48.321Z,24.40
2017-09-08T07:43:16.809Z,24.90
2017-09-08T07:45:45.343Z,25.30
2017-09-08T07:48:13.845Z,24.30
2017-09-08T07:50:42.359Z,23.10
2017-09-08T07:53:10.867Z,21.70
2017-09-08T07:55:39.379Z,20.90
2017-09-08T07:58:07.893Z,20.20
2017-09-08T08:00:36.395Z,20.00
2017-09-08T08:03:04.901Z,19.40
2017-09-08T08:05:33.458Z,18.90
2017-09-08T08:08:02.249Z,18.60
2017-09-08T08:10:30.739Z,18.30
2017-09-08T08:12:59.303Z,18.10
2017-09-08T08:15:27.807Z,18.00
2017-09-08T08:17:56.294Z,18.10
2017-09-08T08:20:25.128Z,18.40
2017-09-08T08:22:53.653Z,18.70
2017-09-08T08:25:21.979Z,18.90
2017-09-08T08:27:50.723Z,19.10
2017-09-08T08:30:19.241Z,18.90
2017-09-08T08:32:47.955Z,18.60
2017-09-08T08:35:16.484Z,18.40
2017-09-08T08:37:45.004Z,18.30
2017-09-08T08:40:13.740Z,18.00
2017-09-08T08:42:42.259Z,18.10
2017-09-08T08:45:10.601Z,18.50
2017-09-08T08:47:39.109Z,18.60
2017-09-08T08:50:07.653Z,19.20
2017-09-08T08:52:36.166Z,19.50
2017-09-08T08:55:04.647Z,20.20
2017-09-08T08:57:33.193Z,21.60
2017-09-08T09:00:01.676Z,22.10
2017-09-08T09:02:30.395Z,22.20
2017-09-08T09:04:58.907Z,22.10
2017-09-08T09:07:27.254Z,22.90
2017-09-08T09:09:55.723Z,23.40
2017-09-08T09:12:24.266Z,22.70
2017-09-08T09:14:52.513Z,22.50
2017-09-08T09:17:21.004Z,22.70
2017-09-08T09:19:49.733Z,22.80
2017-09-08T09:22:18.280Z,23.30
2017-09-08T09:24:47.024Z,23.00
2017-09-08T09:27:15.605Z,23.60
2017-09-08T09:29:44.089Z,23.60
2017-09-08T09:32:12.847Z,23.90
2017-09-08T09:34:41.375Z,24.10
2017-09-08T09:37:10.081Z,23.90
2017-09-08T09:39:38.805Z,24.10
2017-09-08T09:42:07.329Z,24.40
2017-09-08T09:44:36.082Z,24.50
2017-09-08T09:47:04.608Z,25.10
2017-09-08T09:49:33.129Z,26.00
2017-09-08T09:52:01.563Z,26.80
2017-09-08T09:54:30.421Z,26.90
2017-09-08T09:57:00.367Z,26.10
2017-09-08T09:59:29.113Z,25.50
2017-09-08T10:01:57.667Z,24.60
2017-09-08T10:04:26.162Z,24.00
2017-09-08T10:06:54.944Z,23.80
2017-09-08T10:09:24.211Z,23.80
2017-09-08T10:11:52.940Z,23.60
2017-09-08T10:14:22.200Z,23.30
2017-09-08T10:16:50.894Z,23.30
2017-09-08T10:19:19.645Z,22.90
2017-09-08T10:21:51.019Z,23.20
2017-09-08T10:24:19.545Z,23.40
2017-09-08T10:26:48.835Z,22.90
2017-09-08T10:29:17.660Z,22.80
2017-09-08T10:31:47.407Z,22.80
2017-09-08T10:34:16.700Z,22.30
2017-09-08T10:36:45.428Z,22.20
2017-09-08T10:39:14.902Z,22.30
2017-09-08T10:41:43.698Z,22.00
2017-09-08T10:44:12.249Z,22.30
2017-09-08T10:46:41.136Z,22.60
2017-09-08T10:49:09.637Z,22.40
2017-09-08T10:51:37.935Z,22.60
2017-09-08T10:54:07.148Z,22.30
2017-09-08T10:56:35.881Z,22.10
2017-09-08T10:59:04.361Z,22.30
2017-09-08T11:01:33.672Z,22.10
2017-09-08T11:04:02.395Z,21.90
2017-09-08T11:06:31.124Z,22.00
2017-09-08T11:08:59.921Z,22.50
2017-09-08T11:11:28.447Z,22.80
2017-09-08T11:13:57.189Z,23.20
2017-09-08T11:16:25.724Z,23.60
2017-09-08T11:18:54.599Z,24.00
2017-09-08T11:21:23.114Z,23.60
2017-09-08T11:23:52.815Z,23.50
2017-09-08T11:26:21.234Z,23.20
2017-09-08T11:28:50.874Z,22.90
2017-09-08T11:31:25.320Z,22.40
2017-09-08T11:34:18.939Z,21.80
2017-09-08T11:36:53.653Z,21.30
2017-09-08T11:49:39.932Z,21.20
2017-09-08T11:52:14.290Z,21.50
2017-09-08T11:54:48.425Z,21.20
2017-09-08T11:57:35.998Z,20.90
2017-09-08T12:00:10.973Z,20.80
2017-09-08T12:02:51.582Z,20.70
2017-09-08T12:06:51.237Z,20.40
2017-09-08T12:09:22.195Z,20.30
2017-09-08T12:18:22.730Z,20.40
2017-09-08T12:26:07.010Z,21.50
2017-09-08T12:28:42.781Z,21.30
2017-09-08T12:31:11.367Z,21.20
2017-09-08T12:33:39.838Z,21.30
2017-09-08T12:36:08.422Z,21.30
2017-09-08T12:38:36.990Z,21.20
2017-09-08T12:41:05.507Z,21.00
2017-09-08T12:43:34.133Z,20.70
2017-09-08T12:46:02.691Z,21.00
2017-09-08T12:48:31.197Z,21.00
2017-09-08T12:50:59.738Z,21.10
2017-09-08T12:53:28.282Z,20.90
2017-09-08T12:55:56.818Z,20.70
2017-09-08T12:58:25.275Z,20.90
2017-09-08T13:00:53.808Z,21.20
2017-09-08T13:03:22.309Z,21.60
2017-09-08T13:05:50.838Z,21.30
2017-09-08T13:08:19.324Z,21.50
2017-09-08T13:10:47.874Z,21.60
2017-09-08T13:13:16.373Z,21.90
2017-09-08T13:15:44.852Z,22.40
2017-09-08T13:18:13.343Z,23.30
2017-09-08T13:20:41.896Z,24.80
2017-09-08T13:23:10.395Z,25.70
2017-09-08T13:25:42.059Z,25.70
2017-09-08T13:28:10.606Z,26.30
2017-09-08T13:30:39.139Z,26.20
2017-09-08T13:33:07.646Z,25.90
2017-09-08T13:35:36.149Z,24.80
2017-09-08T13:38:04.631Z,24.50
2017-09-08T13:40:33.105Z,23.80
2017-09-08T13:43:01.607Z,24.10
2017-09-08T13:45:30.077Z,24.50
2017-09-08T13:47:58.536Z,23.50
2017-09-08T13:50:27.079Z,23.00
2017-09-08T13:52:55.547Z,22.30
2017-09-08T13:55:24.046Z,22.00
2017-09-08T13:57:52.527Z,22.10
2017-09-08T14:00:21.082Z,22.20
2017-09-08T14:02:49.541Z,22.90
2017-09-08T14:05:18.049Z,23.40
2017-09-08T14:07:46.562Z,23.30
2017-09-08T14:10:15.039Z,23.10
2017-09-08T14:12:43.402Z,23.10
2017-09-08T14:15:11.939Z,23.00
2017-09-08T14:17:40.393Z,22.30
2017-09-08T14:20:08.932Z,21.70
2017-09-08T14:22:37.426Z,21.30
2017-09-08T14:25:05.923Z,20.90
2017-09-08T14:27:34.435Z,20.90
2017-09-08T14:30:03.710Z,20.60
2017-09-08T14:32:32.236Z,20.60
2017-09-08T14:35:00.999Z,20.70
2017-09-08T14:37:29.531Z,21.10
2017-09-08T14:39:57.957Z,21.10
2017-09-08T14:42:26.230Z,21.10
2017-09-08T14:44:54.915Z,20.60
2017-09-08T14:47:24.133Z,20.40
2017-09-08T14:49:53.492Z,20.20
2017-09-08T14:52:22.081Z,20.00
2017-09-08T14:54:50.603Z,20.20
2017-09-08T14:57:19.149Z,20.30
2017-09-08T14:59:47.661Z,20.20
2017-09-08T15:02:16.209Z,20.30
2017-09-08T15:04:44.830Z,20.00
2017-09-08T15:07:13.389Z,20.00
2017-09-08T15:09:41.947Z,19.80
2017-09-08T15:12:10.470Z,20.00
2017-09-08T15:14:39.003Z,19.80
2017-09-08T15:17:07.537Z,19.70
2017-09-08T15:19:36.102Z,19.70
2017-09-08T15:22:04.592Z,19.70
2017-09-08T15:24:33.083Z,19.60
2017-09-08T15:27:01.657Z,19.60
2017-09-08T15:29:30.415Z,19.60
2017-09-08T15:31:58.926Z,19.50
2017-09-08T15:34:27.495Z,19.50
2017-09-08T15:36:56.031Z,19.40
2017-09-08T15:39:24.504Z,19.30
2017-09-08T15:41:53.287Z,19.20
2017-09-08T15:44:21.762Z,19.20
2017-09-08T15:46:50.243Z,19.20
2017-09-08T15:49:18.719Z,19.10
2017-09-08T15:51:47.222Z,19.00
2017-09-08T15:54:15.764Z,19.00
2017-09-08T15:56:44.252Z,19.00
2017-09-08T15:59:12.736Z,18.90
2017-09-08T16:01:41.231Z,18.90
2017-09-08T16:04:09.707Z,18.70
2017-09-08T16:06:38.267Z,18.50
2017-09-08T16:09:06.755Z,18.20
2017-09-08T16:11:35.247Z,18.00
2017-09-08T16:14:03.791Z,17.80
2017-09-08T16:16:32.267Z,17.50
2017-09-08T16:19:00.741Z,17.20
2017-09-08T16:21:29.279Z,17.00
2017-09-08T16:23:57.722Z,16.90
2017-09-08T16:26:26.963Z,16.70
2017-09-08T16:28:55.540Z,16.70
2017-09-08T16:31:24.023Z,16.60
2017-09-08T16:37:10.892Z,16.40
2017-09-08T16:39:42.282Z,16.30
2017-09-08T16:42:10.831Z,16.00
2017-09-08T16:44:39.314Z,15.90
2017-09-08T16:47:07.857Z,15.80
2017-09-08T16:49:36.986Z,15.60
2017-09-08T16:52:05.546Z,15.50
2017-09-08T16:54:34.060Z,15.40
2017-09-08T16:57:02.560Z,15.30
2017-09-08T16:59:31.839Z,15.10
2017-09-08T17:02:00.373Z,15.00
2017-09-08T17:04:28.878Z,14.90
2017-09-08T17:06:57.358Z,14.70
2017-09-08T17:09:25.932Z,14.60
2017-09-08T17:11:54.419Z,14.40
2017-09-08T17:14:22.916Z,14.30
2017-09-08T17:16:51.407Z,14.20
2017-09-08T17:19:20.824Z,14.00
2017-09-08T17:21:50.173Z,13.80
2017-09-08T17:24:18.629Z,13.80
2017-09-08T17:26:46.774Z,13.60
2017-09-08T17:29:15.270Z,13.50
2017-09-08T17:31:43.857Z,13.40
2017-09-08T17:34:12.435Z,13.30
2017-09-08T17:36:40.970Z,13.10
2017-09-08T17:43:04.303Z,13.00
2017-09-08T17:48:10.561Z,12.70
2017-09-08T17:50:39.246Z,12.50
2017-09-08T17:53:07.778Z,12.40
2017-09-08T17:55:36.356Z,12.40
2017-09-08T17:58:04.870Z,12.30
2017-09-08T18:03:22.670Z,12.30
2017-09-08T18:05:51.407Z,12.20
2017-09-08T18:08:19.934Z,12.30
2017-09-08T18:10:48.428Z,12.30
2017-09-08T18:13:17.003Z,12.30
2017-09-08T18:15:45.714Z,12.20
2017-09-08T18:18:15.199Z,12.20
2017-09-08T18:20:43.726Z,12.10
2017-09-08T18:23:12.369Z,12.10
2017-09-08T18:25:41.642Z,12.00
2017-09-08T18:28:13.996Z,11.90
2017-09-08T18:30:45.789Z,11.90
2017-09-08T18:33:14.478Z,11.90
2017-09-08T18:35:43.050Z,11.90
2017-09-08T18:38:11.982Z,11.80
2017-09-08T18:40:40.633Z,11.80
2017-09-08T18:43:25.802Z,11.80
2017-09-08T18:45:54.389Z,11.90
2017-09-08T18:48:27.066Z,11.90
2017-09-08T18:50:56.472Z,11.90
2017-09-08T18:53:25.220Z,11.80
2017-09-08T18:55:54.510Z,11.80
2017-09-08T18:58:24.921Z,11.80
2017-09-08T19:00:54.368Z,11.70
2017-09-08T19:06:13.221Z,11.70
2017-09-08T19:12:16.885Z,11.60
2017-09-08T19:14:45.718Z,11.50
2017-09-08T19:19:55.403Z,11.40
2017-09-08T19:22:24.395Z,11.40
2017-09-08T19:24:55.431Z,11.40
2017-09-08T19:27:24.965Z,11.30
2017-09-08T19:29:53.621Z,11.20
2017-09-08T19:32:22.153Z,11.10
2017-09-08T19:37:32.048Z,10.90
2017-09-08T19:48:52.378Z,10.70
2017-09-08T19:51:22.107Z,10.70
2017-09-08T19:53:51.910Z,10.70
2017-09-08T19:56:20.708Z,10.60
2017-09-08T19:58:49.517Z,10.50
2017-09-08T20:01:18.406Z,10.50
2017-09-08T20:03:53.298Z,10.40
2017-09-08T20:09:30.577Z,10.30
2017-09-08T20:18:40.296Z,10.20
2017-09-08T20:21:09.459Z,10.10
2017-09-08T20:23:38.762Z,10.10
2017-09-08T20:26:07.654Z,10.20
2017-09-08T20:28:38.195Z,10.10
2017-09-08T20:33:42.379Z,10.00
2017-09-08T20:36:12.500Z,9.90
2017-09-08T20:38:41.474Z,9.90
2017-09-08T20:41:13.098Z,9.90
2017-09-08T20:43:45.054Z,9.80
2017-09-08T20:46:16.049Z,9.80
2017-09-08T20:48:45.071Z,9.70
2017-09-08T20:51:25.858Z,9.70
2017-09-08T20:57:28.931Z,9.60
2017-09-08T21:00:02.348Z,9.70
2017-09-08T21:05:34.829Z,9.60
2017-09-08T21:47:44.718Z,9.30
2017-09-08T22:03:17.547Z,9.10
2017-09-08T22:15:38.025Z,9.10
2017-09-08T22:30:03.619Z,8.90
2017-09-08T22:32:32.940Z,9.00
2017-09-08T22:35:11.637Z,8.90
2017-09-08T22:37:41.594Z,8.80
2017-09-08T22:43:07.552Z,8.80
2017-09-08T22:45:40.299Z,8.80
2017-09-08T22:50:59.373Z,8.70
2017-09-08T22:53:28.106Z,8.70
2017-09-08T22:58:39.149Z,8.70
2017-09-08T23:04:04.407Z,8.70
2017-09-08T23:15:58.917Z,8.50
2017-09-08T23:28:20.482Z,8.30
2017-09-08T23:37:47.542Z,8.30
2017-09-08T23:49:46.861Z,8.40
